createdAt,value
2023-03-06T08:04:28.312Z,3.80
2023-03-06T08:05:28.805Z,3.82
2023-03-06T08:06:30.836Z,3.80
2023-03-06T08:07:32.848Z,3.77
2023-03-06T08:08:34.877Z,3.80
2023-03-06T08:09:36.909Z,3.83
2023-03-06T08:10:38.932Z,3.83
2023-03-06T08:11:40.958Z,3.85
2023-03-06T08:12:42.994Z,3.90
2023-03-06T08:13:45.014Z,3.86
2023-03-06T08:14:47.048Z,3.85
2023-03-06T08:15:49.074Z,3.80
2023-03-06T08:16:51.108Z,3.79
2023-03-06T08:17:53.121Z,3.75
2023-03-06T08:18:55.154Z,3.69
2023-03-06T08:19:57.221Z,3.69
2023-03-06T08:20:59.244Z,3.73
2023-03-06T08:22:01.278Z,3.75
2023-03-06T08:23:03.284Z,3.77
2023-03-06T08:24:06.731Z,3.80
2023-03-06T08:25:07.336Z,3.82
2023-03-06T08:26:09.324Z,3.85
2023-03-06T08:27:11.348Z,3.85
2023-03-06T08:28:13.368Z,3.87
2023-03-06T08:29:15.399Z,3.86
2023-03-06T08:30:17.421Z,3.83
2023-03-06T08:31:19.465Z,3.80
2023-03-06T08:32:21.542Z,3.80
2023-03-06T08:33:23.534Z,3.80
2023-03-06T08:34:25.557Z,3.83
2023-03-06T08:35:27.622Z,3.85
2023-03-06T08:36:29.628Z,3.85
2023-03-06T08:37:31.659Z,3.86
2023-03-06T08:38:33.680Z,3.86
2023-03-06T08:39:35.702Z,3.87
2023-03-06T08:40:37.726Z,3.87
2023-03-06T08:41:39.753Z,3.86
2023-03-06T08:42:41.770Z,3.86
2023-03-06T08:43:43.795Z,3.90
2023-03-06T08:44:45.813Z,3.87
2023-03-06T08:45:47.922Z,3.90
2023-03-06T08:46:49.917Z,3.94
2023-03-06T08:47:51.949Z,3.98
2023-03-06T08:48:54.000Z,4.04
2023-03-06T08:49:56.034Z,4.10
2023-03-06T08:50:58.058Z,4.07
2023-03-06T08:52:00.135Z,4.16
2023-03-06T08:53:02.139Z,4.20
2023-03-06T08:54:04.143Z,4.30
2023-03-06T08:55:06.178Z,4.31
2023-03-06T08:56:08.188Z,4.40
2023-03-06T08:57:10.213Z,4.40
2023-03-06T08:58:12.233Z,4.42
2023-03-06T08:59:14.289Z,4.40
2023-03-06T09:00:16.346Z,4.44
2023-03-06T09:01:18.397Z,4.48
2023-03-06T09:02:20.394Z,4.50
2023-03-06T09:03:22.417Z,4.53
2023-03-06T09:04:24.446Z,4.58
2023-03-06T09:05:26.518Z,4.59
2023-03-06T09:06:28.581Z,4.62
2023-03-06T09:07:30.619Z,4.71
2023-03-06T09:08:32.636Z,4.77
2023-03-06T09:09:34.665Z,4.83
2023-03-06T09:10:36.762Z,4.88
2023-03-06T09:11:38.778Z,4.91
2023-03-06T09:12:49.741Z,4.83
2023-03-06T09:13:42.218Z,4.86
2023-03-06T09:14:44.252Z,4.85
2023-03-06T09:15:46.393Z,4.86
2023-03-06T09:16:48.499Z,4.88
2023-03-06T09:17:50.550Z,4.89
2023-03-06T09:18:52.535Z,4.89
2023-03-06T09:19:54.577Z,4.91
2023-03-06T09:20:56.585Z,4.91
2023-03-06T09:21:58.646Z,4.91
2023-03-06T09:23:00.674Z,4.86
2023-03-06T09:24:02.687Z,4.77
